M/V Polaris Melody — 3FHJ9 — position and weather

sailwx.info

Track history (hours):
 
Tides and Currents Weather Stations Pressure Air Temp Water Temp Dewpoint Dewpoint Depression Visibility Wind Speed Wind Dir Waves Ship Positions

M/V Polaris Melody

Last reported at 2018-May-20 02:04 UTC. Time now 2018-May-22 17:55 UTC.
Position N 01°21' E 103°17'.

Length 180 m; draft 8 m.

Type: Cargo ship. MMSI: 370734000.

Date/timePositionNaut miles runAvg speedWind from/ knotsBaromVisibWave heightAir tempDewpointWater temp
2018-May-20 02:04N 01°21' E 103°17'212.8
2018-May-20 01:56N 01°20' E 103°18'613.0
2018-May-20 01:30N 01°17' E 103°22'713.0
2018-May-20 01:00N 01°14' E 103°28'612.6
2018-May-20 00:30N 01°12' E 103°34'611.2
2018-May-20 00:00N 01°11' E 103°40'510.5
2018-May-19 23:30N 01°09' E 103°45'4 8.8
2018-May-19 23:00N 01°11' E 103°49'4 7.0
2018-May-19 22:30N 01°12' E 103°52'3 5.4
2018-May-19 22:00N 01°14' E 103°54'3 5.1
2018-May-19 21:30N 01°16' E 103°53'0 0.0
2018-May-19 20:53N 01°16' E 103°53'0 0.0
2018-May-19 20:29N 01°16' E 103°53'0 0.0
2018-May-19 19:59N 01°16' E 103°53'0 0.0
2018-May-19 19:29N 01°16' E 103°53'0 0.0
2018-May-19 18:59N 01°16' E 103°53'0 0.0
2018-May-19 18:29N 01°16' E 103°53'0 0.3
2018-May-19 17:59N 01°16' E 103°53'0 0.1
2018-May-19 17:29N 01°16' E 103°53'0 0.0
2018-May-19 16:59N 01°16' E 103°53'0 0.0
2018-May-19 16:29N 01°16' E 103°53'0 0.0
2018-May-19 15:58N 01°16' E 103°53'0 0.0
2018-May-19 15:28N 01°16' E 103°53'0 0.0
2018-May-19 14:44N 01°16' E 103°53'0 0.0
2018-May-19 14:29N 01°16' E 103°53'0 0.0
2018-May-19 13:59N 01°16' E 103°53'0 0.0
2018-May-19 13:26N 01°16' E 103°53'0 0.0
2018-May-19 12:55N 01°16' E 103°53'0 0.0
2018-May-19 12:29N 01°16' E 103°53'0 0.0
2018-May-19 11:55N 01°16' E 103°53'0 0.0
2018-May-19 11:29N 01°16' E 103°53'0 0.0
2018-May-19 10:59N 01°16' E 103°53'0 0.2
2018-May-19 10:31N 01°16' E 103°53'2 4.6
2018-May-19 10:00N 01°14' E 103°54'3 6.6
2018-May-19 09:31N 01°15' E 103°57'5 9.5
2018-May-19 09:00N 01°16' E 104°01'712.8
2018-May-19 08:30N 01°16' E 104°08'612.9
2018-May-19 08:00N 01°17' E 104°14'713.3
2018-May-19 07:30N 01°20' E 104°20'713.2
2018-May-19 06:57N 01°24' E 104°26'  
2018-May-14 01:59N 23°12' E 117°42'511.2
2018-May-14 01:30N 23°17' E 117°43'710.7
2018-May-14 00:49N 23°24' E 117°48'310.3
2018-May-14 00:30N 23°26' E 117°50'510.8
2018-May-14 00:00N 23°28' E 117°55'710.7
2018-May-13 23:23N 23°31' E 118°02'710.8
2018-May-13 22:47N 23°34' E 118°08'311.1
2018-May-13 22:30N 23°35' E 118°12'711.1
2018-May-13 21:51N 23°38' E 118°18'811.3
2018-May-13 21:08N 23°43' E 118°25'211.2
2018-May-13 20:57N 23°45' E 118°27'511.6
2018-May-13 20:30N 23°47' E 118°32'711.5
2018-May-13 19:53N 23°51' E 118°38'611.7
2018-May-13 19:24N 23°55' E 118°43'711.8
2018-May-13 18:49N 23°59' E 118°49'412.1
2018-May-13 18:30N 24°01' E 118°53'1712.2
2018-May-13 17:05N 24°11' E 119°08'312.2
2018-May-13 16:51N 24°13' E 119°11'512.2
2018-May-13 16:24N 24°16' E 119°16'512.2
2018-May-13 15:59N 24°19' E 119°20'911.8
2018-May-13 15:14N 24°24' E 119°28'43610.4
2018-May-11 21:13N 31°05' E 122°43'1010.7
2018-May-11 20:19N 31°05' E 122°32'7 9.3
2018-May-11 19:36N 31°05' E 122°24'2 9.7
2018-May-11 19:24N 31°05' E 122°22'410.6
2018-May-11 18:58N 31°07' E 122°17'812.7
2018-May-11 18:19N 31°12' E 122°09'513.2
2018-May-11 17:56N 31°14' E 122°04'713.5
2018-May-11 17:23N 31°16' E 121°55'512.8
2018-May-11 16:58N 31°17' E 121°49'1611.1
2018-May-11 15:28N 31°25' E 121°32'4 7.9
2018-May-11 15:00N 31°27' E 121°28'5 9.7
2018-May-11 14:30N 31°30' E 121°25'5 9.8
2018-May-11 14:00N 31°33' E 121°20'5 9.9
2018-May-11 13:30N 31°37' E 121°16'510.4
2018-May-11 13:00N 31°40' E 121°12'511.0
2018-May-11 12:30N 31°44' E 121°07'611.6
2018-May-11 12:00N 31°46' E 121°01'610.6
2018-May-11 11:29N 31°49' E 120°55'2110.4
2018-May-11 09:27N 32°01' E 120°34'612.7
2018-May-11 09:00N 32°02' E 120°27'  
Track history (hours):
 
Tides and Currents Weather Stations Pressure Air Temp Water Temp Dewpoint Dewpoint Depression Visibility Wind Speed Wind Dir Waves Ship Positions

M/V Polaris Melody

Last reported at 2018-May-20 02:04 UTC. Time now 2018-May-22 17:55 UTC.
Position N 01°21' E 103°17'.

Length 180 m; draft 8 m.

Type: Cargo ship. MMSI: 370734000.

Date/timePositionNaut miles runAvg speedWind from/ knotsBaromVisibWave heightAir tempDewpointWater temp
2018-May-20 02:04N 01°21' E 103°17'212.8
2018-May-20 01:56N 01°20' E 103°18'613.0
2018-May-20 01:30N 01°17' E 103°22'713.0
2018-May-20 01:00N 01°14' E 103°28'612.6
2018-May-20 00:30N 01°12' E 103°34'611.2
2018-May-20 00:00N 01°11' E 103°40'510.5
2018-May-19 23:30N 01°09' E 103°45'4 8.8
2018-May-19 23:00N 01°11' E 103°49'4 7.0
2018-May-19 22:30N 01°12' E 103°52'3 5.4
2018-May-19 22:00N 01°14' E 103°54'3 5.1
2018-May-19 21:30N 01°16' E 103°53'0 0.0
2018-May-19 20:53N 01°16' E 103°53'0 0.0
2018-May-19 20:29N 01°16' E 103°53'0 0.0
2018-May-19 19:59N 01°16' E 103°53'0 0.0
2018-May-19 19:29N 01°16' E 103°53'0 0.0
2018-May-19 18:59N 01°16' E 103°53'0 0.0
2018-May-19 18:29N 01°16' E 103°53'0 0.3
2018-May-19 17:59N 01°16' E 103°53'0 0.1
2018-May-19 17:29N 01°16' E 103°53'0 0.0
2018-May-19 16:59N 01°16' E 103°53'0 0.0
2018-May-19 16:29N 01°16' E 103°53'0 0.0
2018-May-19 15:58N 01°16' E 103°53'0 0.0
2018-May-19 15:28N 01°16' E 103°53'0 0.0
2018-May-19 14:44N 01°16' E 103°53'0 0.0
2018-May-19 14:29N 01°16' E 103°53'0 0.0
2018-May-19 13:59N 01°16' E 103°53'0 0.0
2018-May-19 13:26N 01°16' E 103°53'0 0.0
2018-May-19 12:55N 01°16' E 103°53'0 0.0
2018-May-19 12:29N 01°16' E 103°53'0 0.0
2018-May-19 11:55N 01°16' E 103°53'0 0.0
2018-May-19 11:29N 01°16' E 103°53'0 0.0
2018-May-19 10:59N 01°16' E 103°53'0 0.2
2018-May-19 10:31N 01°16' E 103°53'2 4.6
2018-May-19 10:00N 01°14' E 103°54'3 6.6
2018-May-19 09:31N 01°15' E 103°57'5 9.5
2018-May-19 09:00N 01°16' E 104°01'712.8
2018-May-19 08:30N 01°16' E 104°08'612.9
2018-May-19 08:00N 01°17' E 104°14'713.3
2018-May-19 07:30N 01°20' E 104°20'713.2
2018-May-19 06:57N 01°24' E 104°26'  
2018-May-14 01:59N 23°12' E 117°42'511.2
2018-May-14 01:30N 23°17' E 117°43'710.7
2018-May-14 00:49N 23°24' E 117°48'310.3
2018-May-14 00:30N 23°26' E 117°50'510.8
2018-May-14 00:00N 23°28' E 117°55'710.7
2018-May-13 23:23N 23°31' E 118°02'710.8
2018-May-13 22:47N 23°34' E 118°08'311.1
2018-May-13 22:30N 23°35' E 118°12'711.1
2018-May-13 21:51N 23°38' E 118°18'811.3
2018-May-13 21:08N 23°43' E 118°25'211.2
2018-May-13 20:57N 23°45' E 118°27'511.6
2018-May-13 20:30N 23°47' E 118°32'711.5
2018-May-13 19:53N 23°51' E 118°38'611.7
2018-May-13 19:24N 23°55' E 118°43'711.8
2018-May-13 18:49N 23°59' E 118°49'412.1
2018-May-13 18:30N 24°01' E 118°53'1712.2
2018-May-13 17:05N 24°11' E 119°08'312.2
2018-May-13 16:51N 24°13' E 119°11'512.2
2018-May-13 16:24N 24°16' E 119°16'512.2
2018-May-13 15:59N 24°19' E 119°20'911.8
2018-May-13 15:14N 24°24' E 119°28'43610.4
2018-May-11 21:13N 31°05' E 122°43'1010.7
2018-May-11 20:19N 31°05' E 122°32'7 9.3
2018-May-11 19:36N 31°05' E 122°24'2 9.7
2018-May-11 19:24N 31°05' E 122°22'410.6
2018-May-11 18:58N 31°07' E 122°17'812.7
2018-May-11 18:19N 31°12' E 122°09'513.2
2018-May-11 17:56N 31°14' E 122°04'713.5
2018-May-11 17:23N 31°16' E 121°55'512.8
2018-May-11 16:58N 31°17' E 121°49'1611.1
2018-May-11 15:28N 31°25' E 121°32'4 7.9
2018-May-11 15:00N 31°27' E 121°28'5 9.7
2018-May-11 14:30N 31°30' E 121°25'5 9.8
2018-May-11 14:00N 31°33' E 121°20'5 9.9
2018-May-11 13:30N 31°37' E 121°16'510.4
2018-May-11 13:00N 31°40' E 121°12'511.0
2018-May-11 12:30N 31°44' E 121°07'611.6
2018-May-11 12:00N 31°46' E 121°01'610.6
2018-May-11 11:29N 31°49' E 120°55'2110.4
2018-May-11 09:27N 32°01' E 120°34'612.7
2018-May-11 09:00N 32°02' E 120°27'  

Dump ship's entire track history